Time;durP1;ratioP1;P1;durP2;ratioP2;P2;SDS_P1;SDS_P2;PMS_P1;PMS_P2;Temp;Humidity;BMP_temperature;BMP_pressure;BME280_temperature;BME280_humidity;BME280_pressure;Samples;Min_cycle;Max_cycle;Signal;HPM_P1;HPM_P2
2021/12/09 00:01:31;;;;;;;17.93;9.30;;;3.00;99.90;;;;;;5073285;28;20235;-67
2021/12/09 00:04:00;;;;;;;17.30;9.50;;;3.10;99.90;;;;;;5074296;28;20156;-67
2021/12/09 00:06:30;;;;;;;16.27;7.93;;;3.10;99.90;;;;;;5055536;28;20175;-68
2021/12/09 00:09:03;;;;;;;20.50;10.53;;;3.00;99.90;;;;;;5072429;28;20202;-68
2021/12/09 00:11:30;;;;;;;17.47;9.77;;;2.90;99.90;;;;;;5055048;28;20548;-68
2021/12/09 00:13:56;;;;;;;25.57;10.00;;;2.90;99.90;;;;;;5072805;28;20498;-67
2021/12/09 00:16:22;;;;;;;18.97;9.30;;;2.80;99.90;;;;;;5073172;28;20160;-69
2021/12/09 00:18:48;;;;;;;21.80;10.37;;;2.80;99.90;;;;;;5073007;28;20184;-68
2021/12/09 00:21:14;;;;;;;18.13;9.13;;;2.70;99.90;;;;;;5072933;28;20243;-68
2021/12/09 00:23:40;;;;;;;20.97;11.40;;;2.70;99.90;;;;;;5073169;28;20191;-68
2021/12/09 00:26:06;;;;;;;22.73;10.40;;;2.60;99.90;;;;;;5072972;28;20165;-67
2021/12/09 00:28:32;;;;;;;26.60;11.97;;;2.70;99.90;;;;;;5072460;28;20235;-67
2021/12/09 00:30:58;;;;;;;25.20;11.77;;;2.70;99.90;;;;;;5072928;28;20215;-68
2021/12/09 00:33:24;;;;;;;25.10;12.13;;;2.70;99.90;;;;;;5073043;28;20247;-68
2021/12/09 00:35:59;;;;;;;22.77;12.20;;;2.70;99.90;;;;;;5055316;28;20259;-70
2021/12/09 00:38:38;;;;;;;28.03;13.33;;;2.60;99.90;;;;;;5076044;28;20167;-68
2021/12/09 00:41:07;;;;;;;25.63;11.60;;;2.60;99.90;;;;;;5076895;28;20171;-68
2021/12/09 00:43:33;;;;;;;22.23;11.17;;;2.60;99.90;;;;;;5072426;28;20156;-68
2021/12/09 00:45:59;;;;;;;25.20;12.43;;;2.50;99.90;;;;;;5072247;28;20164;-68
2021/12/09 00:48:26;;;;;;;25.97;12.33;;;2.50;99.90;;;;;;5071855;28;20195;-68
2021/12/09 00:50:54;;;;;;;28.50;14.23;;;2.60;99.90;;;;;;5074305;28;20192;-69
2021/12/09 00:53:20;;;;;;;27.50;11.97;;;2.60;99.90;;;;;;5075447;28;20299;-68
2021/12/09 00:55:46;;;;;;;29.13;15.13;;;2.60;99.90;;;;;;5075650;28;20160;-67
2021/12/09 00:58:12;;;;;;;28.23;13.90;;;2.50;99.90;;;;;;5075972;28;20174;-68
2021/12/09 01:00:37;;;;;;;32.93;13.70;;;2.50;99.90;;;;;;5076034;28;20174;-68
2021/12/09 01:03:03;;;;;;;29.80;13.47;;;2.60;99.90;;;;;;5075892;28;20164;-68
2021/12/09 01:05:29;;;;;;;26.60;12.33;;;2.60;99.90;;;;;;5075731;28;20195;-68
2021/12/09 01:07:56;;;;;;;30.13;13.27;;;2.70;99.90;;;;;;5075636;28;20195;-69
2021/12/09 01:10:23;;;;;;;25.90;12.70;;;2.60;99.90;;;;;;5075423;28;20162;-68
2021/12/09 01:12:48;;;;;;;24.03;10.07;;;2.60;99.90;;;;;;5075785;28;20172;-69
2021/12/09 01:15:16;;;;;;;20.40;9.77;;;2.50;99.90;;;;;;5075397;28;20230;-70
2021/12/09 01:17:42;;;;;;;20.07;10.30;;;2.70;99.90;;;;;;5075400;28;20202;-68
2021/12/09 01:20:11;;;;;;;31.20;14.17;;;2.60;99.90;;;;;;5075339;28;20164;-69
2021/12/09 01:22:42;;;;;;;29.80;13.37;;;2.60;99.90;;;;;;5075115;28;20172;-68
2021/12/09 01:25:16;;;;;;;31.13;13.50;;;2.60;99.90;;;;;;5075459;28;20498;-68
2021/12/09 01:27:45;;;;;;;33.20;14.67;;;2.50;99.90;;;;;;5075145;28;20217;-67
2021/12/09 01:30:16;;;;;;;31.90;15.17;;;2.40;99.90;;;;;;5075137;28;20245;-69
2021/12/09 01:32:49;;;;;;;33.07;14.43;;;2.40;99.90;;;;;;5075272;28;20210;-69
2021/12/09 01:35:24;;;;;;;29.23;14.37;;;2.40;99.90;;;;;;5087086;28;20688;-68
2021/12/09 01:37:54;;;;;;;29.77;14.30;;;2.40;99.90;;;;;;5095948;28;20178;-69
2021/12/09 01:40:22;;;;;;;32.10;15.57;;;2.40;99.90;;;;;;5095527;28;20204;-67
2021/12/09 01:42:47;;;;;;;30.07;14.67;;;2.40;99.90;;;;;;5095244;28;20595;-68
2021/12/09 01:45:13;;;;;;;30.63;13.70;;;2.30;99.90;;;;;;5095655;28;20225;-68
2021/12/09 01:47:39;;;;;;;39.10;16.50;;;2.40;99.90;;;;;;5095886;28;20574;-69
2021/12/09 01:50:06;;;;;;;25.10;12.23;;;2.40;99.90;;;;;;5095625;28;20171;-68
2021/12/09 01:52:32;;;;;;;30.83;15.17;;;2.40;99.90;;;;;;5095513;28;20191;-68
2021/12/09 01:54:58;;;;;;;34.33;15.50;;;2.40;99.90;;;;;;5095670;28;20228;-68
2021/12/09 01:57:24;;;;;;;26.80;12.03;;;2.30;99.90;;;;;;5095587;28;20212;-68
2021/12/09 01:59:50;;;;;;;33.30;14.67;;;2.30;99.90;;;;;;5095618;28;20167;-68
2021/12/09 02:02:16;;;;;;;36.83;16.60;;;2.40;99.90;;;;;;5095341;28;20217;-68
2021/12/09 02:04:43;;;;;;;34.27;13.97;;;2.30;99.90;;;;;;5097555;28;20238;-67
2021/12/09 02:07:10;;;;;;;36.17;17.57;;;2.30;99.90;;;;;;5096283;28;20213;-68
2021/12/09 02:09:35;;;;;;;31.63;16.23;;;2.40;99.90;;;;;;5094666;28;20187;-70
2021/12/09 02:12:03;;;;;;;37.43;15.90;;;2.20;99.90;;;;;;5099634;28;20170;-69
2021/12/09 02:14:29;;;;;;;38.00;17.37;;;2.20;99.90;;;;;;5099184;28;20614;-68
2021/12/09 02:16:55;;;;;;;33.77;16.37;;;2.20;99.90;;;;;;5097441;28;20159;-68
2021/12/09 02:19:20;;;;;;;36.17;16.87;;;2.20;99.90;;;;;;5097454;28;20174;-67
2021/12/09 02:21:46;;;;;;;37.13;16.27;;;2.30;99.90;;;;;;5095980;28;20649;-68
2021/12/09 02:24:14;;;;;;;35.67;17.17;;;2.10;99.90;;;;;;5094784;28;20491;-67
2021/12/09 02:26:43;;;;;;;36.00;16.40;;;2.20;99.90;;;;;;5094350;28;20190;-67
2021/12/09 02:29:12;;;;;;;32.93;15.63;;;2.20;99.90;;;;;;5094627;28;20206;-68
2021/12/09 02:31:39;;;;;;;36.80;17.00;;;2.10;99.90;;;;;;5095048;28;20201;-69
2021/12/09 02:34:06;;;;;;;35.53;16.47;;;2.10;99.90;;;;;;5092402;28;20599;-69
2021/12/09 02:36:37;;;;;;;38.30;16.97;;;2.10;99.90;;;;;;5081050;28;20156;-68
2021/12/09 02:39:05;;;;;;;41.07;18.07;;;2.10;99.90;;;;;;5089686;28;20169;-70
2021/12/09 02:41:33;;;;;;;33.10;15.83;;;2.20;99.90;;;;;;5086644;28;20163;-68
2021/12/09 02:44:03;;;;;;;36.93;16.10;;;2.30;99.90;;;;;;5076138;28;20226;-68
2021/12/09 02:46:35;;;;;;;33.43;16.63;;;2.20;99.90;;;;;;5074712;28;20202;-69
2021/12/09 02:49:02;;;;;;;37.83;16.50;;;2.20;99.90;;;;;;5074159;28;20202;-67
2021/12/09 02:51:28;;;;;;;32.13;15.70;;;2.10;99.90;;;;;;5056993;28;20190;-68
2021/12/09 02:53:53;;;;;;;40.10;17.37;;;2.10;99.90;;;;;;5074491;28;20167;-68
2021/12/09 02:56:20;;;;;;;36.80;16.63;;;2.00;99.90;;;;;;5074114;28;20239;-68
2021/12/09 02:58:46;;;;;;;36.00;17.43;;;2.00;99.90;;;;;;5073833;28;20214;-67
2021/12/09 03:01:16;;;;;;;38.33;17.20;;;2.10;99.90;;;;;;5073783;28;20203;-69
2021/12/09 03:03:52;;;;;;;38.87;17.37;;;2.10;99.90;;;;;;5073481;28;20254;-68
2021/12/09 03:06:20;;;;;;;33.43;14.00;;;2.10;99.90;;;;;;5073626;28;20238;-68
2021/12/09 03:08:47;;;;;;;36.03;16.30;;;2.10;99.90;;;;;;5073552;28;20203;-68
2021/12/09 03:11:19;;;;;;;38.20;16.40;;;2.10;99.90;;;;;;5073450;28;20191;-69
2021/12/09 03:13:45;;;;;;;37.73;18.10;;;2.10;99.90;;;;;;5073139;28;20572;-68
2021/12/09 03:16:12;;;;;;;34.23;17.87;;;2.10;99.90;;;;;;5073396;28;20164;-67
2021/12/09 03:18:43;;;;;;;32.47;16.70;;;2.10;99.90;;;;;;5073723;28;20182;-68
2021/12/09 03:21:18;;;;;;;35.20;16.70;;;2.10;99.90;;;;;;5072977;28;20189;-68
2021/12/09 03:23:44;;;;;;;38.33;17.67;;;2.00;99.90;;;;;;5073393;28;20170;-70
2021/12/09 03:26:11;;;;;;;36.70;16.90;;;2.00;99.90;;;;;;5073194;28;20190;-69
2021/12/09 03:28:37;;;;;;;38.80;17.93;;;2.00;99.90;;;;;;5073000;28;20202;-68
2021/12/09 03:31:02;;;;;;;37.63;17.20;;;2.00;99.90;;;;;;5076868;28;20175;-68
2021/12/09 03:33:28;;;;;;;38.03;17.37;;;2.00;99.90;;;;;;5073306;28;20221;-69
2021/12/09 03:35:59;;;;;;;39.23;17.20;;;2.00;99.90;;;;;;5073309;28;20220;-68
2021/12/09 03:38:25;;;;;;;33.17;16.93;;;2.10;99.90;;;;;;5073016;28;20206;-69
2021/12/09 03:40:51;;;;;;;36.17;17.77;;;2.10;99.90;;;;;;5055493;28;20179;-67
2021/12/09 03:43:17;;;;;;;37.43;16.33;;;2.10;99.90;;;;;;5073201;28;20174;-68
2021/12/09 03:45:42;;;;;;;42.93;18.07;;;2.00;99.90;;;;;;5072841;28;20160;-70
2021/12/09 03:48:08;;;;;;;43.77;18.63;;;2.10;99.90;;;;;;5073035;28;20250;-69
2021/12/09 03:50:34;;;;;;;38.17;17.90;;;2.10;99.90;;;;;;5054907;28;20263;-70
2021/12/09 03:52:59;;;;;;;35.53;16.03;;;2.00;99.90;;;;;;5054870;28;20210;-68
2021/12/09 03:55:25;;;;;;;42.23;18.17;;;2.00;99.90;;;;;;5055230;28;20179;-68
2021/12/09 03:57:51;;;;;;;36.27;16.70;;;2.10;99.90;;;;;;5072545;28;20619;-69
2021/12/09 04:00:17;;;;;;;39.10;17.20;;;2.10;99.90;;;;;;5072873;28;20156;-68
2021/12/09 04:02:42;;;;;;;34.93;16.40;;;2.10;99.90;;;;;;5072377;28;20166;-68
2021/12/09 04:05:08;;;;;;;38.23;17.73;;;2.10;99.90;;;;;;5072877;28;20611;-69
2021/12/09 04:07:34;;;;;;;37.60;16.93;;;2.30;99.90;;;;;;5072289;28;20156;-69
2021/12/09 04:10:01;;;;;;;39.50;17.80;;;2.20;99.90;;;;;;5073033;28;20163;-68
2021/12/09 04:12:26;;;;;;;31.80;16.27;;;2.20;99.90;;;;;;5072582;28;20508;-68
2021/12/09 04:14:52;;;;;;;39.77;17.00;;;2.20;99.90;;;;;;5072736;28;20168;-69
2021/12/09 04:17:18;;;;;;;37.67;17.03;;;2.20;99.90;;;;;;5072834;28;20160;-69
2021/12/09 04:19:47;;;;;;;39.23;16.87;;;2.30;99.90;;;;;;5072473;28;20172;-68
2021/12/09 04:22:18;;;;;;;40.20;17.10;;;2.20;99.90;;;;;;5072383;28;20570;-68
2021/12/09 04:24:44;;;;;;;38.63;17.60;;;2.20;99.90;;;;;;5074637;28;20544;-69
2021/12/09 04:27:10;;;;;;;37.63;17.23;;;2.10;99.90;;;;;;5075878;28;20159;-67
2021/12/09 04:29:36;;;;;;;43.53;18.10;;;2.10;99.90;;;;;;5058597;28;20289;-67
2021/12/09 04:32:02;;;;;;;36.27;18.80;;;2.10;99.90;;;;;;5076488;28;20179;-69
2021/12/09 04:34:28;;;;;;;35.60;16.80;;;2.00;99.90;;;;;;5081502;28;20294;-69
2021/12/09 04:36:54;;;;;;;38.60;18.10;;;2.10;99.90;;;;;;5095881;28;20190;-69
2021/12/09 04:39:19;;;;;;;36.37;18.23;;;2.20;99.90;;;;;;5096321;28;20232;-70
2021/12/09 04:41:45;;;;;;;32.27;16.00;;;2.20;99.90;;;;;;5096135;28;20159;-69
2021/12/09 04:44:11;;;;;;;37.77;17.40;;;2.20;99.90;;;;;;5096041;28;20151;-70
2021/12/09 04:46:37;;;;;;;36.47;17.50;;;2.10;99.90;;;;;;5096132;28;20202;-68
2021/12/09 04:49:04;;;;;;;35.17;17.27;;;2.20;99.90;;;;;;5096200;28;20198;-68
2021/12/09 04:51:30;;;;;;;36.47;18.43;;;2.20;99.90;;;;;;5096285;28;20175;-69
2021/12/09 04:53:55;;;;;;;35.30;17.07;;;2.20;99.90;;;;;;5096267;28;20589;-69
2021/12/09 04:56:21;;;;;;;36.70;15.37;;;2.10;99.90;;;;;;5097982;28;20174;-67
2021/12/09 04:58:47;;;;;;;32.83;16.23;;;2.20;99.90;;;;;;5096986;28;20166;-67
2021/12/09 05:01:13;;;;;;;36.23;16.43;;;2.20;99.90;;;;;;5089607;28;20535;-69
2021/12/09 05:03:38;;;;;;;35.90;16.87;;;2.20;99.90;;;;;;5095871;28;20273;-67
2021/12/09 05:06:04;;;;;;;33.33;16.67;;;2.20;99.90;;;;;;5100273;28;20171;-68
2021/12/09 05:08:32;;;;;;;38.53;17.10;;;2.30;99.90;;;;;;5101608;28;20199;-68
2021/12/09 05:13:37;;;;;;;32.07;15.27;;;2.30;99.90;;;;;;5099735;28;20159;-67
2021/12/09 05:16:04;;;;;;;32.23;15.73;;;2.30;99.90;;;;;;5096607;28;20209;-68
2021/12/09 05:18:32;;;;;;;32.13;16.13;;;2.30;99.90;;;;;;5096141;28;20183;-69
2021/12/09 05:20:59;;;;;;;32.17;15.27;;;2.30;99.90;;;;;;5095830;28;20166;-69
2021/12/09 05:23:25;;;;;;;32.40;14.93;;;2.30;99.90;;;;;;5096110;28;20171;-66
2021/12/09 05:25:51;;;;;;;37.10;15.67;;;2.40;99.90;;;;;;5095855;28;20170;-68
2021/12/09 05:28:18;;;;;;;30.13;16.17;;;2.30;99.90;;;;;;5087705;28;20250;-67
2021/12/09 05:33:31;;;;;;;30.87;16.77;;;2.40;99.90;;;;;;5075518;28;20240;-68
2021/12/09 05:35:57;;;;;;;35.97;14.83;;;2.30;99.90;;;;;;5094626;28;20234;-68
2021/12/09 05:38:23;;;;;;;33.50;15.53;;;2.30;99.90;;;;;;5089994;28;20645;-70
2021/12/09 05:40:49;;;;;;;34.20;16.43;;;2.30;99.90;;;;;;5101856;28;20563;-68
2021/12/09 05:43:16;;;;;;;31.27;15.70;;;2.40;99.90;;;;;;5115333;28;20266;-68
2021/12/09 05:45:43;;;;;;;34.53;14.80;;;2.30;99.90;;;;;;5115960;28;20181;-67
2021/12/09 05:48:12;;;;;;;32.27;14.43;;;2.30;99.90;;;;;;5115560;28;20197;-68
2021/12/09 05:50:38;;;;;;;25.87;14.50;;;2.40;99.90;;;;;;5096675;28;20174;-70
2021/12/09 05:53:04;;;;;;;31.70;14.40;;;2.40;99.90;;;;;;5115440;28;20194;-68
2021/12/09 05:55:31;;;;;;;30.80;15.13;;;2.40;99.90;;;;;;5114985;28;20243;-69
2021/12/09 05:57:56;;;;;;;29.27;14.30;;;2.50;99.90;;;;;;5115457;28;20170;-69
2021/12/09 06:00:22;;;;;;;28.40;15.13;;;2.40;99.90;;;;;;5115165;28;20232;-68
2021/12/09 06:02:48;;;;;;;26.67;14.70;;;2.40;99.90;;;;;;5115235;28;20508;-68
2021/12/09 06:05:14;;;;;;;40.40;19.47;;;2.40;99.90;;;;;;5114788;28;20291;-68
2021/12/09 06:07:39;;;;;;;38.13;17.47;;;2.40;99.90;;;;;;5114789;28;20624;-69
2021/12/09 06:10:06;;;;;;;32.37;14.97;;;2.60;99.90;;;;;;5096345;28;20178;-68
2021/12/09 06:12:32;;;;;;;29.10;14.87;;;2.50;99.90;;;;;;5115203;28;20249;-68
2021/12/09 06:14:58;;;;;;;32.37;15.60;;;2.50;99.90;;;;;;5115347;28;20267;-68
2021/12/09 06:17:24;;;;;;;31.87;15.23;;;2.50;99.90;;;;;;5092915;28;20669;-69
2021/12/09 06:19:50;;;;;;;32.33;16.43;;;2.40;99.90;;;;;;5094577;28;20189;-68
2021/12/09 06:22:15;;;;;;;33.47;15.83;;;2.50;99.90;;;;;;5095082;28;20155;-68
2021/12/09 06:24:41;;;;;;;34.70;18.27;;;2.50;99.90;;;;;;5095027;28;20159;-67
2021/12/09 06:27:07;;;;;;;43.37;20.43;;;2.50;99.90;;;;;;5094327;28;20225;-68
2021/12/09 06:29:34;;;;;;;35.90;15.37;;;2.50;99.90;;;;;;5094370;28;20213;-68
2021/12/09 06:32:01;;;;;;;35.87;17.13;;;2.50;99.90;;;;;;5094234;28;20461;-69
2021/12/09 06:34:26;;;;;;;28.27;15.50;;;2.50;99.90;;;;;;5094316;28;20340;-67
2021/12/09 06:36:52;;;;;;;32.53;16.07;;;2.50;99.90;;;;;;5093717;28;20190;-67
2021/12/09 06:39:18;;;;;;;28.70;15.53;;;2.50;99.90;;;;;;5094072;28;20168;-67
2021/12/09 06:41:45;;;;;;;29.20;14.37;;;2.50;99.90;;;;;;5093791;28;20255;-67
2021/12/09 06:44:11;;;;;;;29.37;16.43;;;2.50;99.90;;;;;;5093569;28;20169;-66
2021/12/09 06:46:37;;;;;;;30.97;14.97;;;2.50;99.90;;;;;;5093253;28;20190;-67
2021/12/09 06:49:04;;;;;;;33.17;15.57;;;2.70;99.90;;;;;;5074460;28;20229;-68
2021/12/09 06:51:30;;;;;;;29.67;14.00;;;2.50;99.90;;;;;;5076225;28;20502;-69
2021/12/09 06:53:56;;;;;;;28.60;15.43;;;2.60;99.90;;;;;;5093557;28;20159;-68
2021/12/09 06:56:23;;;;;;;29.13;15.90;;;2.60;99.90;;;;;;5093488;28;20240;-69
2021/12/09 06:58:49;;;;;;;30.47;15.00;;;2.60;99.90;;;;;;5093622;28;20155;-68
2021/12/09 07:01:15;;;;;;;28.07;13.93;;;2.60;99.90;;;;;;5093578;28;20233;-69
2021/12/09 07:03:41;;;;;;;26.77;13.33;;;2.70;99.90;;;;;;5094082;28;20252;-69
2021/12/09 07:06:11;;;;;;;27.57;15.30;;;2.70;99.90;;;;;;5093514;28;20174;-69
2021/12/09 07:08:44;;;;;;;29.67;14.50;;;2.70;99.90;;;;;;5087972;28;20304;-69
2021/12/09 07:11:10;;;;;;;27.47;13.67;;;2.70;99.90;;;;;;5093728;28;20308;-70
2021/12/09 07:13:36;;;;;;;27.93;14.33;;;2.70;99.90;;;;;;5093924;28;20362;-69
2021/12/09 07:16:03;;;;;;;26.53;14.30;;;2.70;99.90;;;;;;5093844;28;20217;-68
2021/12/09 07:18:28;;;;;;;23.77;14.40;;;2.70;99.90;;;;;;5093614;28;20167;-69
2021/12/09 07:20:55;;;;;;;24.87;12.37;;;2.70;99.90;;;;;;5093631;28;20167;-68
2021/12/09 07:23:21;;;;;;;27.10;14.63;;;2.80;99.90;;;;;;5093564;28;20589;-68
2021/12/09 07:25:46;;;;;;;27.70;15.03;;;2.80;99.90;;;;;;5093758;28;20187;-68
2021/12/09 07:28:13;;;;;;;29.40;14.87;;;2.80;99.90;;;;;;5093184;28;20198;-69
2021/12/09 07:30:39;;;;;;;31.53;14.23;;;2.80;99.90;;;;;;5092960;28;20185;-69
2021/12/09 07:33:05;;;;;;;29.43;14.70;;;2.80;99.90;;;;;;5093445;28;20197;-69
2021/12/09 07:35:30;;;;;;;32.17;15.90;;;2.80;99.90;;;;;;5093377;28;20223;-69
2021/12/09 07:38:01;;;;;;;27.60;15.43;;;2.80;99.90;;;;;;5092950;28;20218;-67
2021/12/09 07:40:28;;;;;;;27.90;12.27;;;2.80;99.90;;;;;;5093357;28;20163;-69
2021/12/09 07:42:54;;;;;;;27.17;14.17;;;2.80;99.90;;;;;;5093245;28;20170;-68
2021/12/09 07:45:20;;;;;;;28.27;14.67;;;2.90;99.90;;;;;;5093381;28;20254;-68
2021/12/09 07:47:46;;;;;;;30.63;14.20;;;2.80;99.90;;;;;;5093324;28;20162;-68
2021/12/09 07:50:15;;;;;;;23.17;11.17;;;2.90;99.90;;;;;;5071421;28;20583;-69
2021/12/09 07:52:48;;;;;;;28.33;14.33;;;2.90;99.90;;;;;;5093481;28;20188;-69
2021/12/09 07:55:15;;;;;;;25.10;14.13;;;2.90;99.90;;;;;;5093222;28;20171;-67
2021/12/09 07:57:42;;;;;;;27.73;14.53;;;2.80;99.90;;;;;;5094311;28;20155;-68
2021/12/09 08:00:30;;;;;;;26.27;11.87;;;2.80;99.90;;;;;;5079369;28;20631;-69
2021/12/09 08:02:58;;;;;;;36.53;16.50;;;2.80;99.90;;;;;;5104607;28;20162;-68
2021/12/09 08:05:27;;;;;;;33.83;15.07;;;2.90;99.90;;;;;;5102039;28;20554;-68
2021/12/09 08:07:52;;;;;;;26.60;14.60;;;2.90;99.90;;;;;;5099972;28;20186;-68
2021/12/09 08:10:19;;;;;;;32.40;16.63;;;2.80;99.90;;;;;;5097090;28;20172;-68
2021/12/09 08:12:46;;;;;;;28.43;14.63;;;2.90;99.90;;;;;;5097194;28;20182;-68
2021/12/09 08:15:13;;;;;;;28.60;14.77;;;2.70;99.90;;;;;;5097016;28;20170;-68
2021/12/09 08:20:14;;;;;;;27.77;15.30;;;2.50;99.90;;;;;;5096719;28;20171;-68
2021/12/09 08:22:42;;;;;;;29.60;15.60;;;2.60;99.90;;;;;;5097252;28;20238;-70
2021/12/09 08:25:10;;;;;;;32.70;16.03;;;2.60;99.90;;;;;;5097092;28;20174;-69
2021/12/09 08:27:36;;;;;;;29.83;15.30;;;2.70;99.90;;;;;;5097109;28;20213;-68
2021/12/09 08:30:06;;;;;;;28.57;15.23;;;2.50;99.90;;;;;;5093290;28;20191;-69
2021/12/09 08:32:33;;;;;;;33.73;16.40;;;2.50;99.90;;;;;;5098705;28;20227;-68
2021/12/09 08:34:59;;;;;;;32.97;16.70;;;2.40;99.90;;;;;;5098190;28;20222;-67
2021/12/09 08:37:25;;;;;;;39.13;17.20;;;2.50;99.90;;;;;;5098245;28;20174;-68
2021/12/09 08:39:50;;;;;;;32.57;16.23;;;2.40;99.90;;;;;;5097996;28;20167;-68
2021/12/09 08:42:17;;;;;;;39.20;18.40;;;2.50;99.90;;;;;;5098075;28;20491;-67
2021/12/09 08:44:43;;;;;;;33.77;16.70;;;2.50;99.90;;;;;;5093943;28;20193;-70
2021/12/09 08:47:09;;;;;;;36.33;18.17;;;2.50;99.90;;;;;;5096666;28;20175;-68
2021/12/09 08:49:35;;;;;;;37.17;19.07;;;2.50;99.90;;;;;;5095924;28;20195;-67
2021/12/09 08:52:01;;;;;;;33.00;17.70;;;2.60;99.90;;;;;;5096344;28;20170;-69
2021/12/09 08:54:27;;;;;;;31.10;16.13;;;2.50;99.90;;;;;;5096168;28;20587;-68
2021/12/09 08:56:53;;;;;;;42.30;22.07;;;2.40;99.90;;;;;;5096243;28;20163;-69
2021/12/09 08:59:21;;;;;;;35.10;18.07;;;2.50;99.90;;;;;;5096197;28;20163;-70
2021/12/09 09:01:48;;;;;;;35.53;19.50;;;2.50;99.90;;;;;;5096695;28;20166;-68
2021/12/09 09:04:13;;;;;;;37.30;18.23;;;2.60;99.90;;;;;;5095847;28;20177;-68
2021/12/09 09:06:53;;;;;;;33.50;16.77;;;2.60;99.90;;;;;;5078007;28;20170;-68
2021/12/09 09:09:19;;;;;;;34.10;17.70;;;2.70;99.90;;;;;;5095535;28;20202;-68
2021/12/09 09:11:45;;;;;;;36.33;18.43;;;2.60;99.90;;;;;;5094839;28;20159;-68
2021/12/09 09:14:11;;;;;;;38.23;18.20;;;2.70;99.90;;;;;;5095818;28;20646;-70
2021/12/09 09:16:38;;;;;;;33.00;16.37;;;2.60;99.90;;;;;;5096074;28;20159;-68
2021/12/09 09:19:04;;;;;;;35.20;17.87;;;2.50;99.90;;;;;;5095768;28;20542;-68
2021/12/09 09:21:31;;;;;;;28.93;16.30;;;2.50;99.90;;;;;;5096093;28;20583;-69
2021/12/09 09:23:57;;;;;;;30.57;15.50;;;2.50;99.90;;;;;;5095751;28;20555;-69
2021/12/09 09:26:23;;;;;;;35.37;17.33;;;2.50;99.90;;;;;;5095411;28;20197;-68
2021/12/09 09:28:49;;;;;;;32.73;16.33;;;2.60;99.90;;;;;;5077645;28;20237;-68
2021/12/09 09:31:15;;;;;;;34.20;18.77;;;2.60;99.90;;;;;;5077211;28;20225;-69
2021/12/09 09:33:41;;;;;;;39.57;20.43;;;2.50;99.90;;;;;;5095377;28;20599;-69
2021/12/09 09:36:07;;;;;;;37.23;20.37;;;2.70;99.90;;;;;;5094883;28;20250;-69
2021/12/09 09:38:33;;;;;;;43.17;23.33;;;2.60;99.90;;;;;;5095403;28;20197;-69
2021/12/09 09:41:08;;;;;;;42.43;20.87;;;2.70;99.90;;;;;;5095066;28;20202;-69
2021/12/09 09:46:19;;;;;;;31.07;16.07;;;2.60;99.90;;;;;;5094944;28;20159;-69
2021/12/09 09:48:46;;;;;;;34.90;18.27;;;2.60;99.90;;;;;;5094361;28;20600;-69
2021/12/09 09:51:13;;;;;;;32.80;17.47;;;2.60;99.90;;;;;;5076279;28;20183;-69
2021/12/09 09:53:41;;;;;;;35.20;18.57;;;2.70;99.90;;;;;;5095523;28;20216;-68
2021/12/09 09:56:13;;;;;;;38.53;18.33;;;2.70;99.90;;;;;;5095124;28;20542;-68
2021/12/09 09:58:43;;;;;;;38.13;18.67;;;2.80;99.90;;;;;;5095617;28;20241;-67
2021/12/09 10:01:09;;;;;;;43.00;20.20;;;2.70;99.90;;;;;;5094522;28;20155;-69
2021/12/09 10:03:45;;;;;;;35.07;17.93;;;2.70;99.90;;;;;;5095428;28;20167;-69
2021/12/09 10:06:13;;;;;;;39.70;18.83;;;2.90;99.90;;;;;;5095473;28;20598;-69
2021/12/09 10:08:39;;;;;;;47.33;21.40;;;2.80;99.90;;;;;;5095518;28;20205;-69
2021/12/09 10:11:06;;;;;;;34.13;17.57;;;2.80;99.90;;;;;;5076368;28;20225;-69
2021/12/09 10:13:36;;;;;;;35.07;18.10;;;2.70;99.90;;;;;;5094873;28;20574;-69
2021/12/09 10:16:07;;;;;;;43.93;22.63;;;2.80;99.90;;;;;;5077014;28;20197;-68
2021/12/09 10:18:39;;;;;;;37.87;19.17;;;2.90;99.90;;;;;;5094941;28;20158;-70
2021/12/09 10:21:18;;;;;;;29.87;13.43;;;2.80;99.90;;;;;;5094702;28;20242;-69
2021/12/09 10:23:50;;;;;;;33.80;16.93;;;2.70;99.90;;;;;;5093615;28;20170;-69
2021/12/09 10:26:23;;;;;;;38.90;18.07;;;2.90;99.90;;;;;;5094400;28;20240;-70
2021/12/09 10:28:56;;;;;;;33.63;17.03;;;2.80;99.90;;;;;;5094656;28;20248;-68
2021/12/09 10:31:24;;;;;;;28.40;15.57;;;2.80;99.90;;;;;;5094012;28;20682;-69
2021/12/09 10:34:02;;;;;;;33.10;16.20;;;2.80;99.90;;;;;;5094261;28;20197;-68
2021/12/09 10:36:56;;;;;;;31.27;15.60;;;2.80;99.90;;;;;;5093722;28;20174;-69
2021/12/09 10:39:34;;;;;;;35.20;16.40;;;2.90;99.90;;;;;;5093958;28;20646;-68
2021/12/09 10:42:11;;;;;;;30.27;16.07;;;2.90;99.90;;;;;;5094214;28;20163;-70
2021/12/09 10:44:47;;;;;;;33.10;17.43;;;2.90;99.90;;;;;;5094765;28;20164;-70
2021/12/09 10:47:34;;;;;;;29.53;15.67;;;2.80;99.90;;;;;;5094416;28;20667;-69
2021/12/09 10:50:25;;;;;;;32.73;16.07;;;2.80;99.90;;;;;;5094929;28;20195;-69
2021/12/09 10:52:54;;;;;;;28.97;15.50;;;2.90;99.90;;;;;;5094245;28;20203;-68
2021/12/09 10:55:30;;;;;;;32.00;17.17;;;2.80;99.90;;;;;;5095213;28;20159;-69
2021/12/09 10:58:09;;;;;;;34.83;16.53;;;2.90;99.90;;;;;;5100443;28;20180;-70
2021/12/09 11:00:44;;;;;;;37.63;17.93;;;2.90;99.90;;;;;;5095506;28;20190;-70
2021/12/09 11:03:11;;;;;;;32.73;17.43;;;2.90;99.90;;;;;;5093713;28;20162;-68
2021/12/09 11:05:51;;;;;;;35.60;18.77;;;3.00;99.90;;;;;;5093441;28;20156;-68
2021/12/09 11:08:36;;;;;;;29.33;14.63;;;3.10;99.90;;;;;;5093793;28;20186;-68
2021/12/09 11:11:07;;;;;;;31.97;16.87;;;3.00;99.90;;;;;;5094222;28;20167;-67
2021/12/09 11:13:42;;;;;;;30.77;16.23;;;3.10;99.90;;;;;;5094380;28;20571;-67
2021/12/09 11:16:08;;;;;;;34.27;17.03;;;3.10;99.90;;;;;;5093809;28;20189;-68
2021/12/09 11:18:44;;;;;;;33.67;16.20;;;3.10;99.90;;;;;;5093186;28;20212;-68
2021/12/09 11:21:17;;;;;;;33.67;16.87;;;3.20;99.90;;;;;;5093205;28;20204;-69
2021/12/09 11:23:45;;;;;;;34.07;17.33;;;3.10;99.90;;;;;;5093321;28;20201;-67
2021/12/09 11:26:31;;;;;;;31.90;16.63;;;3.20;99.90;;;;;;5093290;28;20508;-68
2021/12/09 11:29:06;;;;;;;32.07;16.93;;;3.20;99.90;;;;;;5092932;28;20285;-68
2021/12/09 11:31:37;;;;;;;34.73;15.87;;;3.20;99.90;;;;;;5093544;28;20174;-67
2021/12/09 11:34:11;;;;;;;31.23;16.10;;;3.20;99.90;;;;;;5074331;28;20190;-67
2021/12/09 11:36:43;;;;;;;30.63;17.00;;;3.20;99.90;;;;;;5075377;28;20174;-67
2021/12/09 11:39:15;;;;;;;30.50;16.53;;;3.30;99.90;;;;;;5092631;28;20227;-66
2021/12/09 11:41:42;;;;;;;33.57;16.43;;;3.20;99.90;;;;;;5093037;28;20218;-66
2021/12/09 11:44:09;;;;;;;33.07;17.70;;;3.20;99.90;;;;;;5093142;28;20308;-67
2021/12/09 11:46:40;;;;;;;27.70;16.40;;;3.20;99.90;;;;;;5092870;28;20530;-67
2021/12/09 11:49:07;;;;;;;29.50;16.97;;;3.20;99.90;;;;;;5092950;28;20631;-67
2021/12/09 11:51:33;;;;;;;30.00;16.40;;;3.40;99.90;;;;;;5075123;28;20621;-68
2021/12/09 11:54:01;;;;;;;36.10;17.57;;;3.20;99.90;;;;;;5092683;28;20509;-68
2021/12/09 12:14:59;;;;;;;29.20;16.83;;;3.20;99.90;;;;;;5084527;28;20673;-68
2021/12/09 12:42:17;;;;;;;33.67;17.27;;;3.20;99.90;;;;;;5092944;28;20503;-67
2021/12/09 12:48:09;;;;;;;36.03;18.03;;;3.30;99.90;;;;;;5097304;28;20468;-68
2021/12/09 12:50:36;;;;;;;36.73;17.90;;;3.30;99.90;;;;;;5096768;28;20246;-68
2021/12/09 12:53:32;;;;;;;32.43;18.37;;;3.30;99.90;;;;;;5096399;28;20163;-69
2021/12/09 12:56:16;;;;;;;34.87;16.57;;;3.30;99.90;;;;;;5078191;28;20190;-69
2021/12/09 12:59:15;;;;;;;31.37;17.03;;;3.30;99.90;;;;;;5097418;28;20159;-69
2021/12/09 13:02:13;;;;;;;33.97;18.33;;;3.20;99.90;;;;;;5097591;28;20151;-68
2021/12/09 13:07:43;;;;;;;38.23;21.10;;;3.30;99.90;;;;;;5096859;28;20585;-67
2021/12/09 13:13:15;;;;;;;35.47;17.73;;;3.30;99.90;;;;;;5097557;28;20168;-70
2021/12/09 13:16:00;;;;;;;46.03;22.27;;;3.30;99.90;;;;;;5098857;28;20160;-68
2021/12/09 13:18:53;;;;;;;41.43;20.80;;;3.40;99.90;;;;;;5097543;28;20168;-67
2021/12/09 13:21:55;;;;;;;35.93;18.40;;;3.30;99.90;;;;;;5095369;28;20156;-67
2021/12/09 13:24:38;;;;;;;51.87;23.87;;;3.20;99.90;;;;;;5096624;28;20170;-68
2021/12/09 13:35:43;;;;;;;27.63;12.83;;;3.30;99.90;;;;;;5081947;28;20675;-67
2021/12/09 13:46:32;;;;;;;35.20;17.67;;;3.50;99.90;;;;;;5079561;28;20173;-68
2021/12/09 13:49:09;;;;;;;30.87;17.33;;;3.50;99.90;;;;;;5075316;28;20194;-69
2021/12/09 13:51:55;;;;;;;35.60;18.17;;;3.60;99.90;;;;;;5081798;28;20212;-68
2021/12/09 13:54:28;;;;;;;30.13;17.40;;;3.50;99.90;;;;;;5079979;28;20163;-68
2021/12/09 13:57:06;;;;;;;32.43;16.60;;;3.60;99.90;;;;;;5056208;28;20182;-67
2021/12/09 13:59:35;;;;;;;37.03;18.83;;;3.60;99.90;;;;;;5057092;28;20171;-69
2021/12/09 14:02:20;;;;;;;38.23;17.47;;;3.60;99.90;;;;;;5074681;28;20156;-68
2021/12/09 14:04:46;;;;;;;36.73;17.77;;;3.60;99.90;;;;;;5074424;28;20180;-68
2021/12/09 14:07:19;;;;;;;46.83;23.03;;;3.70;99.90;;;;;;5075111;28;20167;-69